sensor_id;sensor_type;location;lat;lon;timestamp;P1;durP1;ratioP1;P2;durP2;ratioP2
35418;SDS011;21525;41.240;16.500;2024-01-07T00:02:11;19.63;;;8.73;;
35418;SDS011;21525;41.240;16.500;2024-01-07T00:04:37;19.98;;;9.98;;
35418;SDS011;21525;41.240;16.500;2024-01-07T00:07:04;18.67;;;9.48;;
35418;SDS011;21525;41.240;16.500;2024-01-07T00:09:30;40.60;;;35.47;;
35418;SDS011;21525;41.240;16.500;2024-01-07T00:11:56;18.45;;;10.55;;
35418;SDS011;21525;41.240;16.500;2024-01-07T00:14:22;16.35;;;9.05;;
35418;SDS011;21525;41.240;16.500;2024-01-07T00:16:48;16.88;;;7.78;;
35418;SDS011;21525;41.240;16.500;2024-01-07T00:19:14;23.13;;;8.07;;
35418;SDS011;21525;41.240;16.500;2024-01-07T00:21:39;18.52;;;7.97;;
35418;SDS011;21525;41.240;16.500;2024-01-07T00:24:05;16.45;;;8.27;;
35418;SDS011;21525;41.240;16.500;2024-01-07T00:26:31;15.13;;;6.70;;
35418;SDS011;21525;41.240;16.500;2024-01-07T00:28:57;16.38;;;7.28;;
35418;SDS011;21525;41.240;16.500;2024-01-07T00:31:22;17.45;;;7.40;;
35418;SDS011;21525;41.240;16.500;2024-01-07T00:36:17;14.60;;;7.45;;
35418;SDS011;21525;41.240;16.500;2024-01-07T00:38:43;15.50;;;8.05;;
35418;SDS011;21525;41.240;16.500;2024-01-07T00:41:09;15.73;;;8.93;;
35418;SDS011;21525;41.240;16.500;2024-01-07T00:43:35;18.42;;;8.90;;
35418;SDS011;21525;41.240;16.500;2024-01-07T00:46:00;17.25;;;8.52;;
35418;SDS011;21525;41.240;16.500;2024-01-07T00:48:26;18.85;;;8.35;;
35418;SDS011;21525;41.240;16.500;2024-01-07T00:50:52;16.67;;;7.90;;
35418;SDS011;21525;41.240;16.500;2024-01-07T00:53:18;15.80;;;8.05;;
35418;SDS011;21525;41.240;16.500;2024-01-07T00:55:44;14.40;;;8.30;;
35418;SDS011;21525;41.240;16.500;2024-01-07T00:58:09;12.02;;;7.50;;
35418;SDS011;21525;41.240;16.500;2024-01-07T01:00:35;14.88;;;7.78;;
35418;SDS011;21525;41.240;16.500;2024-01-07T01:03:01;14.30;;;7.90;;
35418;SDS011;21525;41.240;16.500;2024-01-07T01:05:27;11.40;;;6.75;;
35418;SDS011;21525;41.240;16.500;2024-01-07T01:07:52;14.75;;;7.55;;
35418;SDS011;21525;41.240;16.500;2024-01-07T01:10:18;14.35;;;6.85;;
35418;SDS011;21525;41.240;16.500;2024-01-07T01:12:44;11.43;;;7.65;;
35418;SDS011;21525;41.240;16.500;2024-01-07T01:15:10;13.63;;;6.28;;
35418;SDS011;21525;41.240;16.500;2024-01-07T01:17:36;10.55;;;6.10;;
35418;SDS011;21525;41.240;16.500;2024-01-07T01:20:02;12.30;;;5.68;;
35418;SDS011;21525;41.240;16.500;2024-01-07T01:22:28;13.55;;;7.05;;
35418;SDS011;21525;41.240;16.500;2024-01-07T01:24:53;12.27;;;5.82;;
35418;SDS011;21525;41.240;16.500;2024-01-07T01:27:21;10.95;;;5.00;;
35418;SDS011;21525;41.240;16.500;2024-01-07T01:29:47;10.30;;;5.53;;
35418;SDS011;21525;41.240;16.500;2024-01-07T01:32:13;8.63;;;5.03;;
35418;SDS011;21525;41.240;16.500;2024-01-07T01:34:39;13.35;;;5.20;;
35418;SDS011;21525;41.240;16.500;2024-01-07T01:37:07;11.30;;;5.88;;
35418;SDS011;21525;41.240;16.500;2024-01-07T01:39:34;12.77;;;5.82;;
35418;SDS011;21525;41.240;16.500;2024-01-07T01:42:00;11.57;;;6.00;;
35418;SDS011;21525;41.240;16.500;2024-01-07T01:44:25;14.63;;;5.82;;
35418;SDS011;21525;41.240;16.500;2024-01-07T01:46:53;10.82;;;5.45;;
35418;SDS011;21525;41.240;16.500;2024-01-07T01:49:20;11.25;;;4.95;;
35418;SDS011;21525;41.240;16.500;2024-01-07T01:51:46;9.32;;;4.20;;
35418;SDS011;21525;41.240;16.500;2024-01-07T01:54:12;11.98;;;4.50;;
35418;SDS011;21525;41.240;16.500;2024-01-07T01:56:38;10.63;;;4.55;;
35418;SDS011;21525;41.240;16.500;2024-01-07T01:59:04;10.50;;;4.93;;
35418;SDS011;21525;41.240;16.500;2024-01-07T02:01:31;8.90;;;3.95;;
35418;SDS011;21525;41.240;16.500;2024-01-07T02:03:57;11.70;;;5.00;;
35418;SDS011;21525;41.240;16.500;2024-01-07T02:06:23;13.07;;;5.38;;
35418;SDS011;21525;41.240;16.500;2024-01-07T02:08:49;9.55;;;5.07;;
35418;SDS011;21525;41.240;16.500;2024-01-07T02:11:20;12.02;;;5.13;;
35418;SDS011;21525;41.240;16.500;2024-01-07T02:13:47;10.73;;;4.97;;
35418;SDS011;21525;41.240;16.500;2024-01-07T02:16:13;8.38;;;4.25;;
35418;SDS011;21525;41.240;16.500;2024-01-07T02:18:40;9.00;;;3.95;;
35418;SDS011;21525;41.240;16.500;2024-01-07T02:21:07;9.07;;;4.07;;
35418;SDS011;21525;41.240;16.500;2024-01-07T02:23:34;8.32;;;4.55;;
35418;SDS011;21525;41.240;16.500;2024-01-07T02:26:00;9.73;;;4.32;;
35418;SDS011;21525;41.240;16.500;2024-01-07T02:28:25;9.02;;;4.57;;
35418;SDS011;21525;41.240;16.500;2024-01-07T02:30:51;8.98;;;4.25;;
35418;SDS011;21525;41.240;16.500;2024-01-07T02:33:17;12.45;;;4.60;;
35418;SDS011;21525;41.240;16.500;2024-01-07T02:35:43;11.48;;;4.88;;
35418;SDS011;21525;41.240;16.500;2024-01-07T02:38:09;9.27;;;3.80;;
35418;SDS011;21525;41.240;16.500;2024-01-07T02:40:34;8.80;;;3.78;;
35418;SDS011;21525;41.240;16.500;2024-01-07T02:43:00;10.02;;;4.07;;
35418;SDS011;21525;41.240;16.500;2024-01-07T02:45:26;6.90;;;3.10;;
35418;SDS011;21525;41.240;16.500;2024-01-07T02:47:52;6.18;;;3.30;;
35418;SDS011;21525;41.240;16.500;2024-01-07T02:50:18;6.75;;;2.63;;
35418;SDS011;21525;41.240;16.500;2024-01-07T02:52:43;7.47;;;2.80;;
35418;SDS011;21525;41.240;16.500;2024-01-07T02:55:09;3.97;;;2.20;;
35418;SDS011;21525;41.240;16.500;2024-01-07T02:57:35;3.78;;;2.33;;
35418;SDS011;21525;41.240;16.500;2024-01-07T03:00:01;5.30;;;2.42;;
35418;SDS011;21525;41.240;16.500;2024-01-07T03:02:28;5.68;;;2.70;;
35418;SDS011;21525;41.240;16.500;2024-01-07T03:04:54;4.60;;;2.03;;
35418;SDS011;21525;41.240;16.500;2024-01-07T03:07:20;6.00;;;2.50;;
35418;SDS011;21525;41.240;16.500;2024-01-07T03:09:47;5.28;;;2.30;;
35418;SDS011;21525;41.240;16.500;2024-01-07T03:12:16;2.67;;;2.10;;
35418;SDS011;21525;41.240;16.500;2024-01-07T03:14:42;3.90;;;2.15;;
35418;SDS011;21525;41.240;16.500;2024-01-07T03:17:11;4.38;;;2.22;;
35418;SDS011;21525;41.240;16.500;2024-01-07T03:19:38;4.55;;;2.33;;
35418;SDS011;21525;41.240;16.500;2024-01-07T03:22:04;4.00;;;2.33;;
35418;SDS011;21525;41.240;16.500;2024-01-07T03:24:32;3.80;;;2.53;;
35418;SDS011;21525;41.240;16.500;2024-01-07T03:26:58;7.35;;;2.90;;
35418;SDS011;21525;41.240;16.500;2024-01-07T03:29:23;5.25;;;2.60;;
35418;SDS011;21525;41.240;16.500;2024-01-07T03:31:49;10.52;;;3.00;;
35418;SDS011;21525;41.240;16.500;2024-01-07T03:34:16;8.75;;;3.83;;
35418;SDS011;21525;41.240;16.500;2024-01-07T03:36:42;9.82;;;4.65;;
35418;SDS011;21525;41.240;16.500;2024-01-07T03:39:08;7.03;;;3.88;;
35418;SDS011;21525;41.240;16.500;2024-01-07T03:41:34;11.57;;;5.20;;
35418;SDS011;21525;41.240;16.500;2024-01-07T03:43:59;9.68;;;4.57;;
35418;SDS011;21525;41.240;16.500;2024-01-07T03:46:25;9.55;;;4.95;;
35418;SDS011;21525;41.240;16.500;2024-01-07T03:48:51;9.07;;;5.13;;
35418;SDS011;21525;41.240;16.500;2024-01-07T03:51:17;8.20;;;5.47;;
35418;SDS011;21525;41.240;16.500;2024-01-07T03:53:43;7.88;;;4.72;;
35418;SDS011;21525;41.240;16.500;2024-01-07T03:56:08;9.27;;;5.00;;
35418;SDS011;21525;41.240;16.500;2024-01-07T03:58:34;9.68;;;5.10;;
35418;SDS011;21525;41.240;16.500;2024-01-07T04:01:00;11.50;;;4.90;;
35418;SDS011;21525;41.240;16.500;2024-01-07T04:03:26;16.27;;;5.55;;
35418;SDS011;21525;41.240;16.500;2024-01-07T04:05:52;8.88;;;4.90;;
35418;SDS011;21525;41.240;16.500;2024-01-07T04:08:18;9.18;;;5.45;;
35418;SDS011;21525;41.240;16.500;2024-01-07T04:10:43;9.40;;;5.35;;
35418;SDS011;21525;41.240;16.500;2024-01-07T04:13:09;12.10;;;5.60;;
35418;SDS011;21525;41.240;16.500;2024-01-07T04:15:36;13.10;;;5.53;;
35418;SDS011;21525;41.240;16.500;2024-01-07T04:18:03;12.38;;;5.65;;
35418;SDS011;21525;41.240;16.500;2024-01-07T04:20:29;9.82;;;5.53;;
35418;SDS011;21525;41.240;16.500;2024-01-07T04:22:56;9.60;;;5.70;;
35418;SDS011;21525;41.240;16.500;2024-01-07T04:25:22;9.43;;;5.18;;
35418;SDS011;21525;41.240;16.500;2024-01-07T04:27:51;10.23;;;4.95;;
35418;SDS011;21525;41.240;16.500;2024-01-07T04:30:16;10.70;;;5.15;;
35418;SDS011;21525;41.240;16.500;2024-01-07T04:32:42;9.55;;;5.63;;
35418;SDS011;21525;41.240;16.500;2024-01-07T04:35:08;10.95;;;5.28;;
35418;SDS011;21525;41.240;16.500;2024-01-07T04:37:34;9.65;;;5.13;;
35418;SDS011;21525;41.240;16.500;2024-01-07T04:40:01;12.93;;;5.93;;
35418;SDS011;21525;41.240;16.500;2024-01-07T04:42:27;13.23;;;5.80;;
35418;SDS011;21525;41.240;16.500;2024-01-07T04:44:53;10.43;;;6.93;;
35418;SDS011;21525;41.240;16.500;2024-01-07T04:47:23;12.20;;;6.47;;
35418;SDS011;21525;41.240;16.500;2024-01-07T04:49:50;12.90;;;6.78;;
35418;SDS011;21525;41.240;16.500;2024-01-07T04:52:16;11.95;;;7.22;;
35418;SDS011;21525;41.240;16.500;2024-01-07T04:54:42;16.83;;;6.85;;
35418;SDS011;21525;41.240;16.500;2024-01-07T04:57:08;14.80;;;7.20;;
35418;SDS011;21525;41.240;16.500;2024-01-07T04:59:34;15.63;;;8.35;;
35418;SDS011;21525;41.240;16.500;2024-01-07T05:02:00;13.77;;;7.65;;
35418;SDS011;21525;41.240;16.500;2024-01-07T05:04:25;18.75;;;9.32;;
35418;SDS011;21525;41.240;16.500;2024-01-07T05:06:51;18.50;;;9.02;;
35418;SDS011;21525;41.240;16.500;2024-01-07T05:09:17;18.10;;;9.02;;
35418;SDS011;21525;41.240;16.500;2024-01-07T05:11:45;16.90;;;10.15;;
35418;SDS011;21525;41.240;16.500;2024-01-07T05:14:11;17.25;;;9.80;;
35418;SDS011;21525;41.240;16.500;2024-01-07T05:16:37;22.92;;;9.60;;
35418;SDS011;21525;41.240;16.500;2024-01-07T05:19:02;16.48;;;9.23;;
35418;SDS011;21525;41.240;16.500;2024-01-07T05:21:28;22.00;;;10.50;;
35418;SDS011;21525;41.240;16.500;2024-01-07T05:23:55;19.60;;;9.32;;
35418;SDS011;21525;41.240;16.500;2024-01-07T05:26:21;22.27;;;10.80;;
35418;SDS011;21525;41.240;16.500;2024-01-07T05:28:47;18.83;;;10.43;;
35418;SDS011;21525;41.240;16.500;2024-01-07T05:31:16;19.30;;;10.43;;
35418;SDS011;21525;41.240;16.500;2024-01-07T05:33:42;16.90;;;10.30;;
35418;SDS011;21525;41.240;16.500;2024-01-07T05:36:09;21.88;;;10.65;;
35418;SDS011;21525;41.240;16.500;2024-01-07T05:38:35;23.20;;;11.15;;
35418;SDS011;21525;41.240;16.500;2024-01-07T05:41:01;20.95;;;10.77;;
35418;SDS011;21525;41.240;16.500;2024-01-07T05:43:27;20.98;;;10.98;;
35418;SDS011;21525;41.240;16.500;2024-01-07T05:45:53;19.88;;;10.60;;
35418;SDS011;21525;41.240;16.500;2024-01-07T05:48:22;20.63;;;10.95;;
35418;SDS011;21525;41.240;16.500;2024-01-07T05:50:48;19.88;;;11.88;;
35418;SDS011;21525;41.240;16.500;2024-01-07T05:53:14;21.80;;;11.70;;
35418;SDS011;21525;41.240;16.500;2024-01-07T05:55:41;27.60;;;12.55;;
35418;SDS011;21525;41.240;16.500;2024-01-07T05:58:08;22.73;;;11.50;;
35418;SDS011;21525;41.240;16.500;2024-01-07T06:00:34;20.27;;;11.35;;
35418;SDS011;21525;41.240;16.500;2024-01-07T06:03:00;20.48;;;12.35;;
35418;SDS011;21525;41.240;16.500;2024-01-07T06:05:26;21.13;;;12.25;;
35418;SDS011;21525;41.240;16.500;2024-01-07T06:07:51;20.05;;;12.65;;
35418;SDS011;21525;41.240;16.500;2024-01-07T06:10:17;19.05;;;12.35;;
35418;SDS011;21525;41.240;16.500;2024-01-07T06:12:43;21.60;;;12.15;;
35418;SDS011;21525;41.240;16.500;2024-01-07T06:15:09;24.88;;;13.05;;
35418;SDS011;21525;41.240;16.500;2024-01-07T06:17:35;21.45;;;12.02;;
35418;SDS011;21525;41.240;16.500;2024-01-07T06:20:00;26.02;;;12.90;;
35418;SDS011;21525;41.240;16.500;2024-01-07T06:22:26;23.60;;;14.30;;
35418;SDS011;21525;41.240;16.500;2024-01-07T06:24:52;26.73;;;15.52;;
35418;SDS011;21525;41.240;16.500;2024-01-07T06:27:18;21.33;;;13.90;;
35418;SDS011;21525;41.240;16.500;2024-01-07T06:29:44;35.15;;;15.98;;
35418;SDS011;21525;41.240;16.500;2024-01-07T06:32:09;28.73;;;16.58;;
35418;SDS011;21525;41.240;16.500;2024-01-07T06:34:35;25.80;;;16.15;;
35418;SDS011;21525;41.240;16.500;2024-01-07T06:37:01;32.20;;;16.95;;
35418;SDS011;21525;41.240;16.500;2024-01-07T06:39:27;30.45;;;16.52;;
35418;SDS011;21525;41.240;16.500;2024-01-07T06:41:53;38.90;;;20.30;;
35418;SDS011;21525;41.240;16.500;2024-01-07T06:44:19;38.65;;;24.98;;
35418;SDS011;21525;41.240;16.500;2024-01-07T06:46:44;40.72;;;25.15;;
35418;SDS011;21525;41.240;16.500;2024-01-07T06:49:10;37.47;;;25.45;;
35418;SDS011;21525;41.240;16.500;2024-01-07T06:51:37;44.00;;;27.17;;
35418;SDS011;21525;41.240;16.500;2024-01-07T06:54:03;36.30;;;23.95;;
35418;SDS011;21525;41.240;16.500;2024-01-07T06:56:29;36.40;;;24.75;;
35418;SDS011;21525;41.240;16.500;2024-01-07T06:58:55;32.50;;;19.20;;
35418;SDS011;21525;41.240;16.500;2024-01-07T07:01:21;29.20;;;19.42;;
35418;SDS011;21525;41.240;16.500;2024-01-07T07:03:48;28.17;;;18.88;;
35418;SDS011;21525;41.240;16.500;2024-01-07T07:06:15;43.88;;;18.20;;
35418;SDS011;21525;41.240;16.500;2024-01-07T07:08:41;28.92;;;15.90;;
35418;SDS011;21525;41.240;16.500;2024-01-07T07:11:07;27.08;;;16.52;;
35418;SDS011;21525;41.240;16.500;2024-01-07T07:13:32;29.23;;;17.45;;
35418;SDS011;21525;41.240;16.500;2024-01-07T07:15:59;30.40;;;18.40;;
35418;SDS011;21525;41.240;16.500;2024-01-07T07:18:25;25.95;;;17.98;;
35418;SDS011;21525;41.240;16.500;2024-01-07T07:20:50;34.40;;;18.70;;
35418;SDS011;21525;41.240;16.500;2024-01-07T07:23:17;34.33;;;20.67;;
35418;SDS011;21525;41.240;16.500;2024-01-07T07:25:43;32.35;;;19.40;;
35418;SDS011;21525;41.240;16.500;2024-01-07T07:28:09;29.63;;;19.67;;
35418;SDS011;21525;41.240;16.500;2024-01-07T07:30:35;32.63;;;21.23;;
35418;SDS011;21525;41.240;16.500;2024-01-07T07:33:01;32.97;;;21.05;;
35418;SDS011;21525;41.240;16.500;2024-01-07T07:35:27;33.35;;;22.00;;
35418;SDS011;21525;41.240;16.500;2024-01-07T07:37:53;27.00;;;19.17;;
35418;SDS011;21525;41.240;16.500;2024-01-07T07:40:20;31.45;;;19.40;;
35418;SDS011;21525;41.240;16.500;2024-01-07T07:42:46;30.90;;;18.02;;
35418;SDS011;21525;41.240;16.500;2024-01-07T07:45:12;29.10;;;17.45;;
35418;SDS011;21525;41.240;16.500;2024-01-07T07:47:37;31.27;;;19.13;;
35418;SDS011;21525;41.240;16.500;2024-01-07T07:50:06;30.17;;;19.60;;
35418;SDS011;21525;41.240;16.500;2024-01-07T07:52:32;35.17;;;20.92;;
35418;SDS011;21525;41.240;16.500;2024-01-07T07:54:58;32.53;;;20.35;;
35418;SDS011;21525;41.240;16.500;2024-01-07T07:57:25;36.38;;;23.83;;
35418;SDS011;21525;41.240;16.500;2024-01-07T07:59:51;39.92;;;22.23;;
35418;SDS011;21525;41.240;16.500;2024-01-07T08:02:17;37.92;;;21.60;;
35418;SDS011;21525;41.240;16.500;2024-01-07T08:04:43;39.45;;;21.50;;
35418;SDS011;21525;41.240;16.500;2024-01-07T08:07:09;32.92;;;19.25;;
35418;SDS011;21525;41.240;16.500;2024-01-07T08:09:35;31.55;;;20.10;;
35418;SDS011;21525;41.240;16.500;2024-01-07T08:12:02;32.42;;;19.95;;
35418;SDS011;21525;41.240;16.500;2024-01-07T08:14:29;30.38;;;19.10;;
35418;SDS011;21525;41.240;16.500;2024-01-07T08:16:56;31.63;;;19.55;;
35418;SDS011;21525;41.240;16.500;2024-01-07T08:19:21;27.50;;;18.88;;
35418;SDS011;21525;41.240;16.500;2024-01-07T08:21:47;27.25;;;17.80;;
35418;SDS011;21525;41.240;16.500;2024-01-07T08:24:13;25.60;;;15.82;;
35418;SDS011;21525;41.240;16.500;2024-01-07T08:26:38;24.58;;;14.18;;
35418;SDS011;21525;41.240;16.500;2024-01-07T08:29:04;22.52;;;13.13;;
35418;SDS011;21525;41.240;16.500;2024-01-07T08:31:31;21.45;;;13.02;;
35418;SDS011;21525;41.240;16.500;2024-01-07T08:33:56;23.52;;;12.95;;
35418;SDS011;21525;41.240;16.500;2024-01-07T08:36:22;19.48;;;12.00;;
35418;SDS011;21525;41.240;16.500;2024-01-07T08:38:48;22.08;;;12.60;;
35418;SDS011;21525;41.240;16.500;2024-01-07T08:41:17;20.95;;;13.25;;
35418;SDS011;21525;41.240;16.500;2024-01-07T08:43:43;19.00;;;11.75;;
35418;SDS011;21525;41.240;16.500;2024-01-07T08:46:10;23.30;;;11.90;;
35418;SDS011;21525;41.240;16.500;2024-01-07T08:48:36;18.33;;;11.98;;
35418;SDS011;21525;41.240;16.500;2024-01-07T08:51:02;18.23;;;11.13;;
35418;SDS011;21525;41.240;16.500;2024-01-07T08:53:28;19.75;;;11.13;;
35418;SDS011;21525;41.240;16.500;2024-01-07T08:55:54;19.75;;;10.82;;
35418;SDS011;21525;41.240;16.500;2024-01-07T08:58:20;17.58;;;10.93;;
35418;SDS011;21525;41.240;16.500;2024-01-07T09:00:46;19.83;;;11.10;;
35418;SDS011;21525;41.240;16.500;2024-01-07T09:03:12;16.40;;;10.32;;
35418;SDS011;21525;41.240;16.500;2024-01-07T09:05:38;16.38;;;8.80;;
35418;SDS011;21525;41.240;16.500;2024-01-07T09:08:04;13.45;;;8.32;;
35418;SDS011;21525;41.240;16.500;2024-01-07T09:10:32;17.67;;;9.47;;
35418;SDS011;21525;41.240;16.500;2024-01-07T09:12:59;14.07;;;9.02;;
35418;SDS011;21525;41.240;16.500;2024-01-07T09:15:25;14.93;;;8.20;;
35418;SDS011;21525;41.240;16.500;2024-01-07T09:17:51;15.25;;;8.23;;
35418;SDS011;21525;41.240;16.500;2024-01-07T09:20:16;14.75;;;8.23;;
35418;SDS011;21525;41.240;16.500;2024-01-07T09:22:42;20.13;;;7.88;;
35418;SDS011;21525;41.240;16.500;2024-01-07T09:25:09;17.30;;;8.45;;
35418;SDS011;21525;41.240;16.500;2024-01-07T09:27:35;13.80;;;7.53;;
35418;SDS011;21525;41.240;16.500;2024-01-07T09:30:01;15.73;;;8.43;;
35418;SDS011;21525;41.240;16.500;2024-01-07T09:32:28;16.08;;;7.35;;
35418;SDS011;21525;41.240;16.500;2024-01-07T09:34:53;9.82;;;6.63;;
35418;SDS011;21525;41.240;16.500;2024-01-07T09:37:19;14.18;;;7.80;;
35418;SDS011;21525;41.240;16.500;2024-01-07T09:39:45;11.73;;;6.65;;
35418;SDS011;21525;41.240;16.500;2024-01-07T09:42:18;13.73;;;7.65;;
35418;SDS011;21525;41.240;16.500;2024-01-07T09:44:44;13.38;;;7.55;;
35418;SDS011;21525;41.240;16.500;2024-01-07T09:47:10;12.98;;;7.55;;
35418;SDS011;21525;41.240;16.500;2024-01-07T09:49:39;13.27;;;7.57;;
35418;SDS011;21525;41.240;16.500;2024-01-07T09:52:07;11.60;;;7.15;;
35418;SDS011;21525;41.240;16.500;2024-01-07T09:54:38;17.80;;;8.40;;
35418;SDS011;21525;41.240;16.500;2024-01-07T09:57:06;14.10;;;8.07;;
35418;SDS011;21525;41.240;16.500;2024-01-07T09:59:33;13.30;;;8.20;;
35418;SDS011;21525;41.240;16.500;2024-01-07T10:02:00;13.70;;;7.88;;
35418;SDS011;21525;41.240;16.500;2024-01-07T10:04:26;12.60;;;6.78;;
35418;SDS011;21525;41.240;16.500;2024-01-07T10:06:56;11.38;;;6.97;;
35418;SDS011;21525;41.240;16.500;2024-01-07T10:09:22;11.75;;;6.90;;
35418;SDS011;21525;41.240;16.500;2024-01-07T10:11:49;12.63;;;7.88;;
35418;SDS011;21525;41.240;16.500;2024-01-07T10:14:23;13.10;;;7.20;;
35418;SDS011;21525;41.240;16.500;2024-01-07T10:16:53;12.60;;;7.38;;
35418;SDS011;21525;41.240;16.500;2024-01-07T10:19:22;11.77;;;6.07;;
35418;SDS011;21525;41.240;16.500;2024-01-07T10:22:01;12.57;;;6.20;;
35418;SDS011;21525;41.240;16.500;2024-01-07T10:24:37;13.88;;;6.63;;
35418;SDS011;21525;41.240;16.500;2024-01-07T10:27:05;11.55;;;6.32;;
35418;SDS011;21525;41.240;16.500;2024-01-07T10:29:32;13.18;;;7.50;;
35418;SDS011;21525;41.240;16.500;2024-01-07T10:32:01;14.27;;;7.72;;
35418;SDS011;21525;41.240;16.500;2024-01-07T10:34:33;11.75;;;7.55;;
35418;SDS011;21525;41.240;16.500;2024-01-07T10:37:01;10.57;;;6.55;;
35418;SDS011;21525;41.240;16.500;2024-01-07T10:39:28;10.93;;;6.90;;
35418;SDS011;21525;41.240;16.500;2024-01-07T10:41:55;13.27;;;8.93;;
35418;SDS011;21525;41.240;16.500;2024-01-07T10:44:25;14.23;;;7.05;;
35418;SDS011;21525;41.240;16.500;2024-01-07T10:47:01;13.40;;;7.93;;
35418;SDS011;21525;41.240;16.500;2024-01-07T10:49:33;13.90;;;7.30;;
35418;SDS011;21525;41.240;16.500;2024-01-07T10:54:28;13.23;;;7.88;;
35418;SDS011;21525;41.240;16.500;2024-01-07T10:56:57;19.88;;;9.02;;
35418;SDS011;21525;41.240;16.500;2024-01-07T10:59:24;14.32;;;8.52;;
35418;SDS011;21525;41.240;16.500;2024-01-07T11:01:51;12.43;;;8.07;;
35418;SDS011;21525;41.240;16.500;2024-01-07T11:04:20;17.00;;;9.35;;
35418;SDS011;21525;41.240;16.500;2024-01-07T11:07:03;14.20;;;8.15;;
35418;SDS011;21525;41.240;16.500;2024-01-07T11:09:38;14.23;;;8.30;;
35418;SDS011;21525;41.240;16.500;2024-01-07T11:12:12;14.65;;;7.53;;
35418;SDS011;21525;41.240;16.500;2024-01-07T11:14:39;16.85;;;8.50;;
35418;SDS011;21525;41.240;16.500;2024-01-07T11:17:08;14.15;;;7.45;;
35418;SDS011;21525;41.240;16.500;2024-01-07T11:19:38;11.25;;;6.97;;
35418;SDS011;21525;41.240;16.500;2024-01-07T11:22:25;17.17;;;8.32;;
35418;SDS011;21525;41.240;16.500;2024-01-07T11:24:53;14.48;;;8.15;;
35418;SDS011;21525;41.240;16.500;2024-01-07T11:27:22;14.30;;;8.35;;
35418;SDS011;21525;41.240;16.500;2024-01-07T11:29:58;15.95;;;8.55;;
35418;SDS011;21525;41.240;16.500;2024-01-07T11:32:30;12.32;;;7.38;;
35418;SDS011;21525;41.240;16.500;2024-01-07T11:34:56;12.05;;;7.30;;
35418;SDS011;21525;41.240;16.500;2024-01-07T11:37:24;10.73;;;6.47;;
35418;SDS011;21525;41.240;16.500;2024-01-07T11:39:55;11.88;;;7.47;;
35418;SDS011;21525;41.240;16.500;2024-01-07T11:42:23;14.57;;;7.15;;
35418;SDS011;21525;41.240;16.500;2024-01-07T11:44:50;10.88;;;6.90;;
35418;SDS011;21525;41.240;16.500;2024-01-07T11:47:18;10.48;;;6.78;;
35418;SDS011;21525;41.240;16.500;2024-01-07T11:49:45;11.57;;;6.70;;
35418;SDS011;21525;41.240;16.500;2024-01-07T11:52:11;12.23;;;6.75;;
35418;SDS011;21525;41.240;16.500;2024-01-07T11:54:38;10.60;;;6.10;;
35418;SDS011;21525;41.240;16.500;2024-01-07T11:57:04;12.77;;;6.63;;
35418;SDS011;21525;41.240;16.500;2024-01-07T11:59:30;10.55;;;6.82;;
35418;SDS011;21525;41.240;16.500;2024-01-07T12:01:56;11.02;;;5.80;;
35418;SDS011;21525;41.240;16.500;2024-01-07T12:04:22;11.55;;;5.97;;
35418;SDS011;21525;41.240;16.500;2024-01-07T12:06:49;10.18;;;5.53;;
35418;SDS011;21525;41.240;16.500;2024-01-07T12:09:15;11.25;;;6.22;;
35418;SDS011;21525;41.240;16.500;2024-01-07T12:11:43;12.68;;;6.60;;
35418;SDS011;21525;41.240;16.500;2024-01-07T12:14:10;11.07;;;7.00;;
35418;SDS011;21525;41.240;16.500;2024-01-07T12:16:36;11.93;;;6.97;;
35418;SDS011;21525;41.240;16.500;2024-01-07T12:19:03;10.48;;;7.80;;
35418;SDS011;21525;41.240;16.500;2024-01-07T12:21:29;15.25;;;7.80;;
35418;SDS011;21525;41.240;16.500;2024-01-07T12:23:55;11.70;;;7.25;;
35418;SDS011;21525;41.240;16.500;2024-01-07T12:26:25;12.52;;;8.00;;
35418;SDS011;21525;41.240;16.500;2024-01-07T12:28:55;13.32;;;8.55;;
35418;SDS011;21525;41.240;16.500;2024-01-07T12:31:28;15.15;;;7.95;;
35418;SDS011;21525;41.240;16.500;2024-01-07T12:33:57;12.45;;;7.57;;
35418;SDS011;21525;41.240;16.500;2024-01-07T12:36:23;13.75;;;8.30;;
35418;SDS011;21525;41.240;16.500;2024-01-07T12:38:50;15.35;;;9.85;;
35418;SDS011;21525;41.240;16.500;2024-01-07T12:41:21;15.82;;;9.68;;
35418;SDS011;21525;41.240;16.500;2024-01-07T12:43:48;13.18;;;9.82;;
35418;SDS011;21525;41.240;16.500;2024-01-07T12:46:15;12.98;;;9.68;;
35418;SDS011;21525;41.240;16.500;2024-01-07T12:48:41;14.45;;;9.95;;
35418;SDS011;21525;41.240;16.500;2024-01-07T12:51:07;14.68;;;9.93;;
35418;SDS011;21525;41.240;16.500;2024-01-07T12:53:32;19.27;;;12.38;;
35418;SDS011;21525;41.240;16.500;2024-01-07T13:09:29;12.07;;;8.45;;
35418;SDS011;21525;41.240;16.500;2024-01-07T13:11:55;14.80;;;10.05;;
35418;SDS011;21525;41.240;16.500;2024-01-07T13:14:20;15.27;;;11.02;;
35418;SDS011;21525;41.240;16.500;2024-01-07T13:16:46;15.52;;;11.13;;
35418;SDS011;21525;41.240;16.500;2024-01-07T13:19:13;19.55;;;12.27;;
35418;SDS011;21525;41.240;16.500;2024-01-07T13:21:39;18.08;;;11.38;;
35418;SDS011;21525;41.240;16.500;2024-01-07T13:24:05;22.75;;;14.85;;
35418;SDS011;21525;41.240;16.500;2024-01-07T13:26:31;18.50;;;11.85;;
35418;SDS011;21525;41.240;16.500;2024-01-07T13:28:57;21.17;;;13.10;;
35418;SDS011;21525;41.240;16.500;2024-01-07T13:31:22;19.38;;;12.85;;
35418;SDS011;21525;41.240;16.500;2024-01-07T13:33:49;20.17;;;12.60;;
35418;SDS011;21525;41.240;16.500;2024-01-07T13:36:14;14.75;;;11.07;;
35418;SDS011;21525;41.240;16.500;2024-01-07T13:38:40;15.40;;;10.10;;
35418;SDS011;21525;41.240;16.500;2024-01-07T13:41:09;13.23;;;9.32;;
35418;SDS011;21525;41.240;16.500;2024-01-07T13:43:36;12.73;;;7.80;;
35418;SDS011;21525;41.240;16.500;2024-01-07T13:46:03;8.13;;;5.10;;
35418;SDS011;21525;41.240;16.500;2024-01-07T13:48:29;7.60;;;4.82;;
35418;SDS011;21525;41.240;16.500;2024-01-07T13:50:55;5.00;;;3.38;;
35418;SDS011;21525;41.240;16.500;2024-01-07T13:53:23;6.37;;;3.53;;
35418;SDS011;21525;41.240;16.500;2024-01-07T13:55:49;6.93;;;3.22;;
35418;SDS011;21525;41.240;16.500;2024-01-07T13:58:15;6.15;;;2.72;;
35418;SDS011;21525;41.240;16.500;2024-01-07T14:00:40;4.88;;;2.60;;
35418;SDS011;21525;41.240;16.500;2024-01-07T14:03:06;5.32;;;3.13;;
35418;SDS011;21525;41.240;16.500;2024-01-07T14:05:32;5.30;;;2.30;;
35418;SDS011;21525;41.240;16.500;2024-01-07T14:07:58;4.63;;;2.70;;
35418;SDS011;21525;41.240;16.500;2024-01-07T14:10:24;5.10;;;1.98;;
35418;SDS011;21525;41.240;16.500;2024-01-07T14:12:50;2.78;;;1.00;;
35418;SDS011;21525;41.240;16.500;2024-01-07T14:15:16;2.30;;;0.95;;
35418;SDS011;21525;41.240;16.500;2024-01-07T14:17:43;2.75;;;0.90;;
35418;SDS011;21525;41.240;16.500;2024-01-07T14:20:09;1.90;;;1.00;;
35418;SDS011;21525;41.240;16.500;2024-01-07T14:22:35;1.85;;;1.02;;
35418;SDS011;21525;41.240;16.500;2024-01-07T14:25:02;3.65;;;1.02;;
35418;SDS011;21525;41.240;16.500;2024-01-07T14:27:29;1.42;;;1.20;;
35418;SDS011;21525;41.240;16.500;2024-01-07T14:29:55;2.58;;;0.90;;
35418;SDS011;21525;41.240;16.500;2024-01-07T14:32:21;2.13;;;0.80;;
35418;SDS011;21525;41.240;16.500;2024-01-07T14:34:47;1.70;;;0.95;;
35418;SDS011;21525;41.240;16.500;2024-01-07T14:37:15;1.52;;;1.00;;